sensor_id;sensor_type;location;lat;lon;timestamp;pressure;altitude;pressure_sealevel;temperature;humidity
54666;BME280;40566;50.006;36.180;2022-09-13T00:04:55;98759.47;;;12.96;74.25
54666;BME280;40566;50.006;36.180;2022-09-13T00:09:55;98743.06;;;12.96;74.09
54666;BME280;40566;50.006;36.180;2022-09-13T00:14:56;98737.88;;;12.96;74.00
54666;BME280;40566;50.006;36.180;2022-09-13T00:19:57;98730.97;;;12.95;74.30
54666;BME280;40566;50.006;36.180;2022-09-13T00:24:57;98726.63;;;12.95;74.37
54666;BME280;40566;50.006;36.180;2022-09-13T00:29:58;98728.31;;;12.96;74.53
54666;BME280;40566;50.006;36.180;2022-09-13T00:34:58;98720.59;;;12.95;74.52
54666;BME280;40566;50.006;36.180;2022-09-13T00:40:00;98720.53;;;12.96;74.29
54666;BME280;40566;50.006;36.180;2022-09-13T00:55:52;98703.69;;;12.87;74.39
54666;BME280;40566;50.006;36.180;2022-09-13T01:07:12;98703.19;;;12.81;74.87
54666;BME280;40566;50.006;36.180;2022-09-13T01:12:32;98699.69;;;12.82;74.96
54666;BME280;40566;50.006;36.180;2022-09-13T01:17:35;98694.50;;;12.82;75.15
54666;BME280;40566;50.006;36.180;2022-09-13T01:22:56;98693.81;;;12.78;75.01
54666;BME280;40566;50.006;36.180;2022-09-13T01:49:22;98660.47;;;12.70;75.41
54666;BME280;40566;50.006;36.180;2022-09-13T01:54:36;98661.38;;;12.69;75.48
54666;BME280;40566;50.006;36.180;2022-09-13T02:00:12;98658.31;;;12.63;75.43
54666;BME280;40566;50.006;36.180;2022-09-13T02:10:41;98647.03;;;12.64;75.59
54666;BME280;40566;50.006;36.180;2022-09-13T02:15:46;98645.94;;;12.68;75.48
54666;BME280;40566;50.006;36.180;2022-09-13T02:20:49;98653.78;;;12.66;75.43
54666;BME280;40566;50.006;36.180;2022-09-13T02:25:52;98647.03;;;12.64;75.52
54666;BME280;40566;50.006;36.180;2022-09-13T02:30:56;98645.25;;;12.64;75.45
54666;BME280;40566;50.006;36.180;2022-09-13T02:36:08;98638.31;;;12.65;75.50
54666;BME280;40566;50.006;36.180;2022-09-13T02:47:03;98631.59;;;12.61;75.47
54666;BME280;40566;50.006;36.180;2022-09-13T02:52:10;98617.13;;;12.57;75.88
54666;BME280;40566;50.006;36.180;2022-09-13T02:57:14;98608.91;;;12.33;76.05
54666;BME280;40566;50.006;36.180;2022-09-13T03:02:21;98604.72;;;12.46;76.12
54666;BME280;40566;50.006;36.180;2022-09-13T03:07:22;98606.66;;;12.42;75.90
54666;BME280;40566;50.006;36.180;2022-09-13T03:33:56;98594.69;;;12.40;76.04
54666;BME280;40566;50.006;36.180;2022-09-13T03:44:12;98581.38;;;12.46;75.93
54666;BME280;40566;50.006;36.180;2022-09-13T03:49:17;98578.63;;;12.49;75.96
54666;BME280;40566;50.006;36.180;2022-09-13T03:54:21;98575.38;;;12.45;76.02
54666;BME280;40566;50.006;36.180;2022-09-13T03:59:22;98578.97;;;12.43;76.16
54666;BME280;40566;50.006;36.180;2022-09-13T04:04:23;98573.53;;;12.47;75.95
54666;BME280;40566;50.006;36.180;2022-09-13T04:09:23;98565.59;;;12.50;76.09
54666;BME280;40566;50.006;36.180;2022-09-13T04:14:24;98562.06;;;12.52;75.93
54666;BME280;40566;50.006;36.180;2022-09-13T04:19:28;98562.16;;;12.50;76.04
54666;BME280;40566;50.006;36.180;2022-09-13T04:24:29;98553.44;;;12.51;76.02
54666;BME280;40566;50.006;36.180;2022-09-13T04:29:30;98565.41;;;12.54;75.96
54666;BME280;40566;50.006;36.180;2022-09-13T04:34:31;98561.97;;;12.53;76.14
54666;BME280;40566;50.006;36.180;2022-09-13T04:39:32;98553.19;;;12.56;76.25
54666;BME280;40566;50.006;36.180;2022-09-13T04:44:33;98542.72;;;12.57;75.87
54666;BME280;40566;50.006;36.180;2022-09-13T04:49:33;98534.13;;;12.57;76.13
54666;BME280;40566;50.006;36.180;2022-09-13T04:54:34;98523.66;;;12.58;76.23
54666;BME280;40566;50.006;36.180;2022-09-13T04:59:34;98517.38;;;12.62;76.04
54666;BME280;40566;50.006;36.180;2022-09-13T05:04:35;98507.09;;;12.61;76.00
54666;BME280;40566;50.006;36.180;2022-09-13T11:52:26;98576.00;;;14.58;69.28
54666;BME280;40566;50.006;36.180;2022-09-13T11:57:35;98576.75;;;14.45;70.18
54666;BME280;40566;50.006;36.180;2022-09-13T12:12:57;98583.91;;;14.56;69.63
54666;BME280;40566;50.006;36.180;2022-09-13T12:18:08;98579.97;;;14.49;69.66
54666;BME280;40566;50.006;36.180;2022-09-13T12:23:19;98582.06;;;14.44;69.42
54666;BME280;40566;50.006;36.180;2022-09-13T12:29:12;98578.97;;;14.52;68.93
54666;BME280;40566;50.006;36.180;2022-09-13T12:33:50;98598.75;;;14.54;68.80
54666;BME280;40566;50.006;36.180;2022-09-13T13:00:10;98595.88;;;14.59;68.16
54666;BME280;40566;50.006;36.180;2022-09-13T13:05:30;98605.00;;;14.52;68.57
54666;BME280;40566;50.006;36.180;2022-09-13T13:10:35;98609.47;;;14.50;68.95
54666;BME280;40566;50.006;36.180;2022-09-13T13:21:04;98612.25;;;14.46;68.76
54666;BME280;40566;50.006;36.180;2022-09-13T13:36:29;98623.22;;;14.52;68.49
54666;BME280;40566;50.006;36.180;2022-09-13T13:46:41;98638.72;;;14.39;68.53
54666;BME280;40566;50.006;36.180;2022-09-13T13:51:41;98645.13;;;14.33;68.88
54666;BME280;40566;50.006;36.180;2022-09-13T13:56:48;98637.31;;;14.33;68.45
54666;BME280;40566;50.006;36.180;2022-09-13T14:01:53;98638.72;;;14.39;68.55
54666;BME280;40566;50.006;36.180;2022-09-13T14:23:21;98637.69;;;14.41;68.04
54666;BME280;40566;50.006;36.180;2022-09-13T14:28:22;98645.22;;;14.46;68.38
54666;BME280;40566;50.006;36.180;2022-09-13T14:38:32;98640.69;;;14.50;68.22
54666;BME280;40566;50.006;36.180;2022-09-13T14:43:34;98667.72;;;14.47;68.46
54666;BME280;40566;50.006;36.180;2022-09-13T14:48:41;98653.78;;;14.48;67.92
54666;BME280;40566;50.006;36.180;2022-09-13T14:53:46;98646.34;;;14.42;68.33
54666;BME280;40566;50.006;36.180;2022-09-13T14:58:55;98646.25;;;14.43;68.27
54666;BME280;40566;50.006;36.180;2022-09-13T15:03:58;98648.75;;;14.45;68.70
54666;BME280;40566;50.006;36.180;2022-09-13T15:19:30;98651.66;;;14.40;69.22
54666;BME280;40566;50.006;36.180;2022-09-13T15:24:34;98664.00;;;14.37;69.47
54666;BME280;40566;50.006;36.180;2022-09-13T15:29:35;98664.09;;;14.35;69.38
54666;BME280;40566;50.006;36.180;2022-09-13T15:34:44;98656.41;;;14.34;69.10
54666;BME280;40566;50.006;36.180;2022-09-13T15:39:49;98669.75;;;14.27;69.10
54666;BME280;40566;50.006;36.180;2022-09-13T15:44:50;98677.19;;;14.19;69.71
54666;BME280;40566;50.006;36.180;2022-09-13T15:49:51;98683.97;;;14.22;69.92
54666;BME280;40566;50.006;36.180;2022-09-13T15:54:52;98688.53;;;14.18;69.73
54666;BME280;40566;50.006;36.180;2022-09-13T15:59:53;98687.03;;;14.14;70.05
54666;BME280;40566;50.006;36.180;2022-09-13T16:04:55;98707.84;;;14.14;70.10
54666;BME280;40566;50.006;36.180;2022-09-13T16:09:56;98710.69;;;14.09;70.51
54666;BME280;40566;50.006;36.180;2022-09-13T16:14:56;98716.75;;;14.10;70.21
54666;BME280;40566;50.006;36.180;2022-09-13T16:19:57;98715.00;;;14.11;70.07
54666;BME280;40566;50.006;36.180;2022-09-13T16:24:58;98724.56;;;14.10;70.17
54666;BME280;40566;50.006;36.180;2022-09-13T16:29:59;98715.16;;;14.07;70.26
54666;BME280;40566;50.006;36.180;2022-09-13T16:34:59;98727.31;;;14.07;70.48
54666;BME280;40566;50.006;36.180;2022-09-13T16:40:00;98729.94;;;14.07;70.07
54666;BME280;40566;50.006;36.180;2022-09-13T16:45:01;98731.94;;;14.02;70.29
54666;BME280;40566;50.006;36.180;2022-09-13T16:50:02;98726.75;;;14.02;70.48
54666;BME280;40566;50.006;36.180;2022-09-13T16:55:04;98720.78;;;14.00;70.40
54666;BME280;40566;50.006;36.180;2022-09-13T17:00:06;98721.75;;;13.99;70.63
54666;BME280;40566;50.006;36.180;2022-09-13T17:05:11;98725.25;;;13.98;70.49
54666;BME280;40566;50.006;36.180;2022-09-13T17:10:12;98732.13;;;13.99;70.56
54666;BME280;40566;50.006;36.180;2022-09-13T17:15:12;98733.06;;;13.98;70.82
54666;BME280;40566;50.006;36.180;2022-09-13T17:20:13;98735.84;;;13.95;70.74
54666;BME280;40566;50.006;36.180;2022-09-13T17:25:17;98727.31;;;13.93;70.80
54666;BME280;40566;50.006;36.180;2022-09-13T17:30:20;98731.91;;;13.87;70.75
54666;BME280;40566;50.006;36.180;2022-09-13T17:35:20;98745.50;;;13.93;70.81
54666;BME280;40566;50.006;36.180;2022-09-13T17:40:22;98746.75;;;13.85;70.49
54666;BME280;40566;50.006;36.180;2022-09-13T17:45:23;98742.41;;;13.86;70.53
54666;BME280;40566;50.006;36.180;2022-09-13T17:50:24;98749.63;;;13.81;70.19
54666;BME280;40566;50.006;36.180;2022-09-13T17:55:25;98755.06;;;13.76;70.47
54666;BME280;40566;50.006;36.180;2022-09-13T18:00:26;98751.84;;;13.73;70.41
54666;BME280;40566;50.006;36.180;2022-09-13T18:05:27;98757.78;;;13.75;70.41
54666;BME280;40566;50.006;36.180;2022-09-13T18:10:28;98756.84;;;13.76;70.33
54666;BME280;40566;50.006;36.180;2022-09-13T18:15:29;98759.44;;;13.76;70.37
54666;BME280;40566;50.006;36.180;2022-09-13T18:20:29;98758.78;;;13.72;70.50
54666;BME280;40566;50.006;36.180;2022-09-13T18:25:30;98752.75;;;13.72;70.39
54666;BME280;40566;50.006;36.180;2022-09-13T18:30:31;98750.59;;;13.64;70.52
54666;BME280;40566;50.006;36.180;2022-09-13T18:35:32;98749.09;;;13.60;70.53
54666;BME280;40566;50.006;36.180;2022-09-13T18:40:32;98754.59;;;13.69;70.58
54666;BME280;40566;50.006;36.180;2022-09-13T18:45:33;98752.44;;;13.62;70.76
54666;BME280;40566;50.006;36.180;2022-09-13T18:50:34;98756.13;;;13.58;70.87
54666;BME280;40566;50.006;36.180;2022-09-13T18:55:34;98757.38;;;13.51;71.07
54666;BME280;40566;50.006;36.180;2022-09-13T19:00:35;98754.16;;;13.47;71.33
54666;BME280;40566;50.006;36.180;2022-09-13T19:05:36;98735.78;;;13.50;71.23
54666;BME280;40566;50.006;36.180;2022-09-13T19:10:38;98737.03;;;13.59;70.71
54666;BME280;40566;50.006;36.180;2022-09-13T19:15:39;98740.38;;;13.61;70.84
54666;BME280;40566;50.006;36.180;2022-09-13T19:20:39;98742.56;;;13.53;71.23
54666;BME280;40566;50.006;36.180;2022-09-13T19:25:40;98745.25;;;13.51;71.34
54666;BME280;40566;50.006;36.180;2022-09-13T19:30:41;98743.88;;;13.60;71.20
54666;BME280;40566;50.006;36.180;2022-09-13T19:35:41;98740.28;;;13.62;71.13
54666;BME280;40566;50.006;36.180;2022-09-13T19:40:42;98742.78;;;13.64;70.87
54666;BME280;40566;50.006;36.180;2022-09-13T19:45:42;98742.97;;;13.61;70.77
54666;BME280;40566;50.006;36.180;2022-09-13T19:50:43;98748.00;;;13.64;71.08
54666;BME280;40566;50.006;36.180;2022-09-13T19:55:44;98734.16;;;13.63;71.10
54666;BME280;40566;50.006;36.180;2022-09-13T20:00:46;98736.75;;;13.63;70.92
54666;BME280;40566;50.006;36.180;2022-09-13T20:05:46;98749.84;;;13.62;70.90
54666;BME280;40566;50.006;36.180;2022-09-13T20:10:47;98745.56;;;13.61;70.97
54666;BME280;40566;50.006;36.180;2022-09-13T20:15:47;98756.81;;;13.61;71.07
54666;BME280;40566;50.006;36.180;2022-09-13T20:20:48;98752.63;;;13.59;70.82
54666;BME280;40566;50.006;36.180;2022-09-13T20:25:49;98757.06;;;13.57;71.02
54666;BME280;40566;50.006;36.180;2022-09-13T20:30:54;98745.41;;;13.48;71.15
54666;BME280;40566;50.006;36.180;2022-09-13T20:35:54;98760.25;;;13.46;71.39
54666;BME280;40566;50.006;36.180;2022-09-13T20:41:01;98748.69;;;13.52;71.24
54666;BME280;40566;50.006;36.180;2022-09-13T20:46:03;98751.28;;;13.52;71.05
54666;BME280;40566;50.006;36.180;2022-09-13T20:51:10;98747.94;;;13.49;71.11
54666;BME280;40566;50.006;36.180;2022-09-13T20:56:16;98756.41;;;13.53;71.04
54666;BME280;40566;50.006;36.180;2022-09-13T21:01:17;98754.91;;;13.49;70.98
54666;BME280;40566;50.006;36.180;2022-09-13T21:06:24;98749.78;;;13.47;71.50
54666;BME280;40566;50.006;36.180;2022-09-13T21:11:31;98748.09;;;13.46;71.33
54666;BME280;40566;50.006;36.180;2022-09-13T21:16:36;98742.06;;;13.46;71.57
54666;BME280;40566;50.006;36.180;2022-09-13T21:21:39;98740.97;;;13.34;72.10
54666;BME280;40566;50.006;36.180;2022-09-13T21:26:40;98745.75;;;13.26;72.70
54666;BME280;40566;50.006;36.180;2022-09-13T21:31:41;98747.09;;;13.17;73.09
54666;BME280;40566;50.006;36.180;2022-09-13T21:36:43;98743.22;;;13.24;73.17
54666;BME280;40566;50.006;36.180;2022-09-13T21:41:44;98757.47;;;13.17;73.46
54666;BME280;40566;50.006;36.180;2022-09-13T21:46:46;98753.44;;;13.12;73.54
54666;BME280;40566;50.006;36.180;2022-09-13T21:51:47;98749.09;;;13.12;73.86
54666;BME280;40566;50.006;36.180;2022-09-13T21:56:50;98727.91;;;13.04;73.97
54666;BME280;40566;50.006;36.180;2022-09-13T22:01:51;98754.13;;;13.15;73.84
54666;BME280;40566;50.006;36.180;2022-09-13T22:06:53;98759.97;;;13.19;73.94
54666;BME280;40566;50.006;36.180;2022-09-13T22:11:54;98752.09;;;13.20;73.89
54666;BME280;40566;50.006;36.180;2022-09-13T22:16:55;98742.81;;;13.16;73.90
54666;BME280;40566;50.006;36.180;2022-09-13T22:21:58;98734.94;;;13.18;73.71
54666;BME280;40566;50.006;36.180;2022-09-13T22:26:59;98750.44;;;13.19;73.65
54666;BME280;40566;50.006;36.180;2022-09-13T22:32:00;98750.44;;;13.19;73.78
54666;BME280;40566;50.006;36.180;2022-09-13T22:37:00;98735.34;;;13.10;73.78
54666;BME280;40566;50.006;36.180;2022-09-13T22:42:01;98747.09;;;13.01;74.14
54666;BME280;40566;50.006;36.180;2022-09-13T22:47:01;98744.38;;;13.03;73.97
54666;BME280;40566;50.006;36.180;2022-09-13T22:52:02;98738.50;;;12.99;73.83
54666;BME280;40566;50.006;36.180;2022-09-13T22:57:02;98742.38;;;12.92;74.15
54666;BME280;40566;50.006;36.180;2022-09-13T23:02:03;98739.78;;;12.92;74.08
54666;BME280;40566;50.006;36.180;2022-09-13T23:07:04;98751.75;;;12.95;73.98
54666;BME280;40566;50.006;36.180;2022-09-13T23:12:04;98745.72;;;12.94;73.99
54666;BME280;40566;50.006;36.180;2022-09-13T23:17:05;98743.97;;;12.95;73.85
54666;BME280;40566;50.006;36.180;2022-09-13T23:22:05;98747.81;;;12.87;74.13
54666;BME280;40566;50.006;36.180;2022-09-13T23:27:06;98746.22;;;12.85;74.03
54666;BME280;40566;50.006;36.180;2022-09-13T23:32:07;98748.06;;;12.83;73.82
54666;BME280;40566;50.006;36.180;2022-09-13T23:37:07;98738.06;;;12.75;74.11
54666;BME280;40566;50.006;36.180;2022-09-13T23:42:08;98738.16;;;12.74;74.03
54666;BME280;40566;50.006;36.180;2022-09-13T23:47:09;98743.88;;;12.80;73.80
54666;BME280;40566;50.006;36.180;2022-09-13T23:52:09;98750.72;;;12.81;73.59
54666;BME280;40566;50.006;36.180;2022-09-13T23:57:10;98753.41;;;12.80;73.68
